sensor_id;sensor_type;location;lat;lon;timestamp;pressure;altitude;pressure_sealevel;temperature
64947;BMP280;51469;52.150;4.682;2023-04-01T00:01:57;99258.13;;;16.98
64947;BMP280;51469;52.150;4.682;2023-04-01T00:04:22;99244.91;;;17.02
64947;BMP280;51469;52.150;4.682;2023-04-01T00:06:48;99248.91;;;17.01
64947;BMP280;51469;52.150;4.682;2023-04-01T00:09:14;99253.78;;;16.88
64947;BMP280;51469;52.150;4.682;2023-04-01T00:11:40;99253.16;;;16.84
64947;BMP280;51469;52.150;4.682;2023-04-01T00:14:07;99254.56;;;16.89
64947;BMP280;51469;52.150;4.682;2023-04-01T00:16:32;99255.66;;;16.91
64947;BMP280;51469;52.150;4.682;2023-04-01T00:18:58;99255.66;;;16.82
64947;BMP280;51469;52.150;4.682;2023-04-01T00:21:25;99250.56;;;16.90
64947;BMP280;51469;52.150;4.682;2023-04-01T00:23:51;99261.41;;;16.66
64947;BMP280;51469;52.150;4.682;2023-04-01T00:26:17;99259.16;;;16.34
64947;BMP280;51469;52.150;4.682;2023-04-01T00:28:44;99262.56;;;16.47
64947;BMP280;51469;52.150;4.682;2023-04-01T00:31:10;99265.66;;;16.49
64947;BMP280;51469;52.150;4.682;2023-04-01T00:33:36;99259.63;;;16.42
64947;BMP280;51469;52.150;4.682;2023-04-01T00:36:10;99263.50;;;16.44
64947;BMP280;51469;52.150;4.682;2023-04-01T00:38:36;99262.50;;;16.29
64947;BMP280;51469;52.150;4.682;2023-04-01T00:41:03;99267.56;;;16.00
64947;BMP280;51469;52.150;4.682;2023-04-01T00:43:28;99264.72;;;16.22
64947;BMP280;51469;52.150;4.682;2023-04-01T00:45:54;99279.69;;;16.24
64947;BMP280;51469;52.150;4.682;2023-04-01T00:48:22;99269.56;;;16.30
64947;BMP280;51469;52.150;4.682;2023-04-01T00:51:09;99277.00;;;16.42
64947;BMP280;51469;52.150;4.682;2023-04-01T00:53:39;99278.53;;;16.43
64947;BMP280;51469;52.150;4.682;2023-04-01T00:56:14;99289.25;;;16.32
64947;BMP280;51469;52.150;4.682;2023-04-01T00:58:46;99290.03;;;16.33
64947;BMP280;51469;52.150;4.682;2023-04-01T01:01:13;99296.63;;;16.26
64947;BMP280;51469;52.150;4.682;2023-04-01T01:03:39;99284.50;;;16.11
64947;BMP280;51469;52.150;4.682;2023-04-01T01:06:20;99290.03;;;16.11
64947;BMP280;51469;52.150;4.682;2023-04-01T01:09:28;99288.25;;;15.96
64947;BMP280;51469;52.150;4.682;2023-04-01T01:12:10;99294.63;;;16.05
64947;BMP280;51469;52.150;4.682;2023-04-01T01:15:51;99291.84;;;16.05
64947;BMP280;51469;52.150;4.682;2023-04-01T01:18:09;99298.41;;;16.20
64947;BMP280;51469;52.150;4.682;2023-04-01T01:23:46;99306.66;;;16.11
64947;BMP280;51469;52.150;4.682;2023-04-01T01:37:11;99311.41;;;15.89
64947;BMP280;51469;52.150;4.682;2023-04-01T01:39:39;99310.25;;;15.99
64947;BMP280;51469;52.150;4.682;2023-04-01T01:42:08;99319.38;;;15.87
64947;BMP280;51469;52.150;4.682;2023-04-01T01:44:36;99317.41;;;16.09
64947;BMP280;51469;52.150;4.682;2023-04-01T01:47:02;99321.06;;;16.06
64947;BMP280;51469;52.150;4.682;2023-04-01T01:49:29;99320.41;;;15.81
64947;BMP280;51469;52.150;4.682;2023-04-01T01:51:57;99328.72;;;16.02
64947;BMP280;51469;52.150;4.682;2023-04-01T01:54:22;99329.16;;;16.01
64947;BMP280;51469;52.150;4.682;2023-04-01T01:56:51;99329.41;;;16.15
64947;BMP280;51469;52.150;4.682;2023-04-01T01:59:19;99332.97;;;15.94
64947;BMP280;51469;52.150;4.682;2023-04-01T02:01:49;99335.97;;;15.87
64947;BMP280;51469;52.150;4.682;2023-04-01T02:04:16;99334.31;;;16.11
64947;BMP280;51469;52.150;4.682;2023-04-01T02:06:53;99336.88;;;16.06
64947;BMP280;51469;52.150;4.682;2023-04-01T02:09:20;99342.28;;;16.09
64947;BMP280;51469;52.150;4.682;2023-04-01T02:11:49;99349.47;;;16.28
64947;BMP280;51469;52.150;4.682;2023-04-01T02:17:05;99356.13;;;16.31
64947;BMP280;51469;52.150;4.682;2023-04-01T02:19:35;99359.69;;;16.31
64947;BMP280;51469;52.150;4.682;2023-04-01T02:22:04;99361.19;;;16.32
64947;BMP280;51469;52.150;4.682;2023-04-01T02:24:32;99362.72;;;16.33
64947;BMP280;51469;52.150;4.682;2023-04-01T02:26:58;99376.28;;;16.31
64947;BMP280;51469;52.150;4.682;2023-04-01T02:29:24;99367.00;;;16.25
64947;BMP280;51469;52.150;4.682;2023-04-01T02:31:51;99365.78;;;16.26
64947;BMP280;51469;52.150;4.682;2023-04-01T02:34:18;99374.09;;;16.26
64947;BMP280;51469;52.150;4.682;2023-04-01T02:36:44;99380.66;;;16.41
64947;BMP280;51469;52.150;4.682;2023-04-01T02:39:09;99385.66;;;16.55
64947;BMP280;51469;52.150;4.682;2023-04-01T02:41:40;99374.72;;;16.52
64947;BMP280;51469;52.150;4.682;2023-04-01T02:44:06;99385.06;;;16.60
64947;BMP280;51469;52.150;4.682;2023-04-01T02:46:32;99382.22;;;16.51
64947;BMP280;51469;52.150;4.682;2023-04-01T02:48:57;99391.66;;;16.63
64947;BMP280;51469;52.150;4.682;2023-04-01T02:51:23;99400.69;;;16.76
64947;BMP280;51469;52.150;4.682;2023-04-01T02:53:48;99392.56;;;16.81
64947;BMP280;51469;52.150;4.682;2023-04-01T02:56:13;99396.88;;;16.82
64947;BMP280;51469;52.150;4.682;2023-04-01T02:58:39;99405.66;;;16.90
64947;BMP280;51469;52.150;4.682;2023-04-01T03:01:04;99409.66;;;16.89
64947;BMP280;51469;52.150;4.682;2023-04-01T03:03:30;99405.44;;;16.75
64947;BMP280;51469;52.150;4.682;2023-04-01T03:05:56;99416.75;;;16.90
64947;BMP280;51469;52.150;4.682;2023-04-01T03:08:23;99419.06;;;16.91
64947;BMP280;51469;52.150;4.682;2023-04-01T03:10:49;99422.19;;;17.02
64947;BMP280;51469;52.150;4.682;2023-04-01T03:13:14;99431.97;;;16.85
64947;BMP280;51469;52.150;4.682;2023-04-01T03:15:40;99438.13;;;16.89
64947;BMP280;51469;52.150;4.682;2023-04-01T03:18:05;99434.75;;;16.94
64947;BMP280;51469;52.150;4.682;2023-04-01T03:20:30;99448.44;;;16.89
64947;BMP280;51469;52.150;4.682;2023-04-01T03:22:56;99451.13;;;17.01
64947;BMP280;51469;52.150;4.682;2023-04-01T03:25:21;99443.28;;;17.00
64947;BMP280;51469;52.150;4.682;2023-04-01T03:27:46;99452.16;;;16.95
64947;BMP280;51469;52.150;4.682;2023-04-01T03:30:12;99464.50;;;17.02
64947;BMP280;51469;52.150;4.682;2023-04-01T03:32:37;99465.19;;;17.07
64947;BMP280;51469;52.150;4.682;2023-04-01T03:35:03;99465.78;;;17.11
64947;BMP280;51469;52.150;4.682;2023-04-01T03:37:30;99473.00;;;17.08
64947;BMP280;51469;52.150;4.682;2023-04-01T03:39:55;99475.47;;;17.06
64947;BMP280;51469;52.150;4.682;2023-04-01T03:42:20;99477.00;;;17.07
64947;BMP280;51469;52.150;4.682;2023-04-01T03:44:46;99481.03;;;17.06
64947;BMP280;51469;52.150;4.682;2023-04-01T03:47:11;99487.41;;;16.94
64947;BMP280;51469;52.150;4.682;2023-04-01T03:49:36;99498.19;;;16.92
64947;BMP280;51469;52.150;4.682;2023-04-01T03:52:02;99478.34;;;16.72
64947;BMP280;51469;52.150;4.682;2023-04-01T03:54:27;99498.81;;;16.75
64947;BMP280;51469;52.150;4.682;2023-04-01T03:56:53;99511.94;;;16.83
64947;BMP280;51469;52.150;4.682;2023-04-01T03:59:18;99503.44;;;16.77
64947;BMP280;51469;52.150;4.682;2023-04-01T04:01:43;99513.66;;;16.81
64947;BMP280;51469;52.150;4.682;2023-04-01T04:04:11;99514.34;;;16.72
64947;BMP280;51469;52.150;4.682;2023-04-01T04:06:38;99518.41;;;16.80
64947;BMP280;51469;52.150;4.682;2023-04-01T04:09:03;99525.50;;;16.81
64947;BMP280;51469;52.150;4.682;2023-04-01T04:11:30;99527.53;;;16.90
64947;BMP280;51469;52.150;4.682;2023-04-01T04:13:56;99527.75;;;16.95
64947;BMP280;51469;52.150;4.682;2023-04-01T04:16:21;99542.09;;;16.81
64947;BMP280;51469;52.150;4.682;2023-04-01T04:18:46;99541.19;;;16.84
64947;BMP280;51469;52.150;4.682;2023-04-01T04:21:14;99544.03;;;16.93
64947;BMP280;51469;52.150;4.682;2023-04-01T04:23:40;99551.75;;;16.98
64947;BMP280;51469;52.150;4.682;2023-04-01T04:26:08;99560.56;;;16.84
64947;BMP280;51469;52.150;4.682;2023-04-01T04:28:33;99561.91;;;16.92
64947;BMP280;51469;52.150;4.682;2023-04-01T04:30:59;99560.78;;;16.90
64947;BMP280;51469;52.150;4.682;2023-04-01T04:33:26;99566.69;;;16.79
64947;BMP280;51469;52.150;4.682;2023-04-01T04:35:54;99562.72;;;16.80
64947;BMP280;51469;52.150;4.682;2023-04-01T04:38:20;99577.19;;;16.84
64947;BMP280;51469;52.150;4.682;2023-04-01T04:40:45;99576.22;;;16.78
64947;BMP280;51469;52.150;4.682;2023-04-01T04:43:12;99585.25;;;16.91
64947;BMP280;51469;52.150;4.682;2023-04-01T04:45:38;99586.94;;;16.89
64947;BMP280;51469;52.150;4.682;2023-04-01T04:48:03;99597.13;;;16.92
64947;BMP280;51469;52.150;4.682;2023-04-01T04:50:29;99592.84;;;16.78
64947;BMP280;51469;52.150;4.682;2023-04-01T04:52:54;99598.38;;;16.78
64947;BMP280;51469;52.150;4.682;2023-04-01T04:55:20;99605.19;;;16.65
64947;BMP280;51469;52.150;4.682;2023-04-01T04:57:46;99617.72;;;16.69
64947;BMP280;51469;52.150;4.682;2023-04-01T05:00:11;99611.56;;;16.74
64947;BMP280;51469;52.150;4.682;2023-04-01T05:02:37;99624.44;;;16.68
64947;BMP280;51469;52.150;4.682;2023-04-01T05:05:02;99613.94;;;16.63
64947;BMP280;51469;52.150;4.682;2023-04-01T05:07:28;99629.75;;;16.63
64947;BMP280;51469;52.150;4.682;2023-04-01T05:09:53;99630.03;;;16.56
64947;BMP280;51469;52.150;4.682;2023-04-01T05:12:19;99629.91;;;16.59
64947;BMP280;51469;52.150;4.682;2023-04-01T05:14:44;99637.34;;;16.50
64947;BMP280;51469;52.150;4.682;2023-04-01T05:17:10;99637.72;;;16.39
64947;BMP280;51469;52.150;4.682;2023-04-01T05:19:36;99634.38;;;16.44
64947;BMP280;51469;52.150;4.682;2023-04-01T05:22:02;99650.75;;;16.51
64947;BMP280;51469;52.150;4.682;2023-04-01T05:24:27;99656.97;;;16.43
64947;BMP280;51469;52.150;4.682;2023-04-01T05:26:53;99653.81;;;16.53
64947;BMP280;51469;52.150;4.682;2023-04-01T05:29:18;99661.69;;;16.55
64947;BMP280;51469;52.150;4.682;2023-04-01T05:31:43;99669.31;;;16.63
64947;BMP280;51469;52.150;4.682;2023-04-01T05:34:09;99669.88;;;16.58
64947;BMP280;51469;52.150;4.682;2023-04-01T05:36:34;99673.00;;;16.60
64947;BMP280;51469;52.150;4.682;2023-04-01T05:39:00;99685.28;;;16.59
64947;BMP280;51469;52.150;4.682;2023-04-01T05:41:26;99684.75;;;16.52
64947;BMP280;51469;52.150;4.682;2023-04-01T05:43:51;99685.19;;;16.50
64947;BMP280;51469;52.150;4.682;2023-04-01T05:46:16;99683.53;;;16.40
64947;BMP280;51469;52.150;4.682;2023-04-01T05:48:42;99687.31;;;16.46
64947;BMP280;51469;52.150;4.682;2023-04-01T05:51:13;99691.84;;;16.40
64947;BMP280;51469;52.150;4.682;2023-04-01T05:53:38;99704.47;;;16.41
64947;BMP280;51469;52.150;4.682;2023-04-01T05:56:04;99705.13;;;16.58
64947;BMP280;51469;52.150;4.682;2023-04-01T05:58:30;99710.41;;;16.52
64947;BMP280;51469;52.150;4.682;2023-04-01T06:01:10;99705.69;;;16.40
64947;BMP280;51469;52.150;4.682;2023-04-01T06:03:36;99713.00;;;16.34
64947;BMP280;51469;52.150;4.682;2023-04-01T06:06:01;99723.06;;;16.41
64947;BMP280;51469;52.150;4.682;2023-04-01T06:08:28;99721.38;;;16.43
64947;BMP280;51469;52.150;4.682;2023-04-01T06:29:55;99760.59;;;16.54
64947;BMP280;51469;52.150;4.682;2023-04-01T06:43:56;99778.44;;;16.41
64947;BMP280;51469;52.150;4.682;2023-04-01T06:46:57;99784.50;;;16.48
64947;BMP280;51469;52.150;4.682;2023-04-01T06:52:10;99791.06;;;16.54
64947;BMP280;51469;52.150;4.682;2023-04-01T06:54:40;99794.94;;;16.69
64947;BMP280;51469;52.150;4.682;2023-04-01T06:59:44;99802.31;;;16.47
64947;BMP280;51469;52.150;4.682;2023-04-01T07:04:39;99808.41;;;16.42
64947;BMP280;51469;52.150;4.682;2023-04-01T07:07:08;99811.31;;;16.51
64947;BMP280;51469;52.150;4.682;2023-04-01T07:09:40;99809.41;;;16.48
64947;BMP280;51469;52.150;4.682;2023-04-01T07:12:25;99818.72;;;16.42
64947;BMP280;51469;52.150;4.682;2023-04-01T07:14:54;99823.16;;;16.52
64947;BMP280;51469;52.150;4.682;2023-04-01T07:17:23;99824.72;;;16.53
64947;BMP280;51469;52.150;4.682;2023-04-01T07:22:39;99831.56;;;16.48
64947;BMP280;51469;52.150;4.682;2023-04-01T07:25:11;99844.22;;;16.62
64947;BMP280;51469;52.150;4.682;2023-04-01T07:27:36;99839.97;;;16.45
64947;BMP280;51469;52.150;4.682;2023-04-01T07:30:06;99842.09;;;16.53
64947;BMP280;51469;52.150;4.682;2023-04-01T07:32:44;99850.50;;;16.62
64947;BMP280;51469;52.150;4.682;2023-04-01T07:51:30;99877.13;;;16.97
64947;BMP280;51469;52.150;4.682;2023-04-01T07:54:14;99877.13;;;16.97
64947;BMP280;51469;52.150;4.682;2023-04-01T08:13:11;99896.75;;;17.15
64947;BMP280;51469;52.150;4.682;2023-04-01T08:21:27;99908.03;;;16.96
64947;BMP280;51469;52.150;4.682;2023-04-01T08:24:07;99921.69;;;17.15
64947;BMP280;51469;52.150;4.682;2023-04-01T08:26:38;99927.66;;;17.26
64947;BMP280;51469;52.150;4.682;2023-04-01T08:29:16;99927.53;;;17.17
64947;BMP280;51469;52.150;4.682;2023-04-01T08:31:46;99925.47;;;17.21
64947;BMP280;51469;52.150;4.682;2023-04-01T08:34:20;99923.91;;;16.95
64947;BMP280;51469;52.150;4.682;2023-04-01T08:36:51;99933.63;;;17.12
64947;BMP280;51469;52.150;4.682;2023-04-01T08:39:24;99947.47;;;17.37
64947;BMP280;51469;52.150;4.682;2023-04-01T08:42:01;99945.16;;;17.48
64947;BMP280;51469;52.150;4.682;2023-04-01T08:47:32;99952.03;;;17.56
64947;BMP280;51469;52.150;4.682;2023-04-01T08:52:53;99955.09;;;17.58
64947;BMP280;51469;52.150;4.682;2023-04-01T09:09:28;99974.88;;;17.35
64947;BMP280;51469;52.150;4.682;2023-04-01T09:20:09;99991.16;;;17.70
64947;BMP280;51469;52.150;4.682;2023-04-01T09:25:31;99985.25;;;17.81
64947;BMP280;51469;52.150;4.682;2023-04-01T09:38:55;100011.59;;;17.98
64947;BMP280;51469;52.150;4.682;2023-04-01T09:41:29;100010.59;;;18.04
64947;BMP280;51469;52.150;4.682;2023-04-01T09:47:43;100018.50;;;18.27
64947;BMP280;51469;52.150;4.682;2023-04-01T10:01:00;100027.69;;;18.37
64947;BMP280;51469;52.150;4.682;2023-04-01T10:18:04;100052.56;;;18.06
64947;BMP280;51469;52.150;4.682;2023-04-01T10:29:00;100054.38;;;18.00
64947;BMP280;51469;52.150;4.682;2023-04-01T10:32:24;100040.41;;;17.91
64947;BMP280;51469;52.150;4.682;2023-04-01T10:35:33;100059.47;;;18.02
64947;BMP280;51469;52.150;4.682;2023-04-01T11:13:41;100083.41;;;18.98
64947;BMP280;51469;52.150;4.682;2023-04-01T11:24:50;100100.66;;;19.45
64947;BMP280;51469;52.150;4.682;2023-04-01T11:32:54;100113.25;;;19.28
64947;BMP280;51469;52.150;4.682;2023-04-01T11:35:55;100113.06;;;19.22
64947;BMP280;51469;52.150;4.682;2023-04-01T11:49:40;100124.00;;;19.78
64947;BMP280;51469;52.150;4.682;2023-04-01T11:52:32;100124.84;;;19.57
64947;BMP280;51469;52.150;4.682;2023-04-01T11:57:56;100136.34;;;19.46
64947;BMP280;51469;52.150;4.682;2023-04-01T12:08:48;100154.09;;;19.70
64947;BMP280;51469;52.150;4.682;2023-04-01T12:19:39;100161.78;;;19.88
64947;BMP280;51469;52.150;4.682;2023-04-01T12:30:50;100174.94;;;19.96
64947;BMP280;51469;52.150;4.682;2023-04-01T12:47:27;100206.25;;;19.05
64947;BMP280;51469;52.150;4.682;2023-04-01T12:55:29;100217.72;;;18.95
64947;BMP280;51469;52.150;4.682;2023-04-01T13:04:20;100222.81;;;19.09
64947;BMP280;51469;52.150;4.682;2023-04-01T13:10:38;100224.47;;;19.06
64947;BMP280;51469;52.150;4.682;2023-04-01T13:18:25;100236.72;;;19.09
64947;BMP280;51469;52.150;4.682;2023-04-01T13:26:32;100258.94;;;18.75
64947;BMP280;51469;52.150;4.682;2023-04-01T13:29:42;100260.44;;;19.01
64947;BMP280;51469;52.150;4.682;2023-04-01T13:37:22;100264.22;;;19.50
64947;BMP280;51469;52.150;4.682;2023-04-01T13:40:04;100268.22;;;19.49
64947;BMP280;51469;52.150;4.682;2023-04-01T13:43:01;100264.09;;;19.32
64947;BMP280;51469;52.150;4.682;2023-04-01T13:45:50;100271.09;;;18.90
64947;BMP280;51469;52.150;4.682;2023-04-01T14:02:28;100304.50;;;19.11
64947;BMP280;51469;52.150;4.682;2023-04-01T14:13:28;100308.66;;;19.62
64947;BMP280;51469;52.150;4.682;2023-04-01T14:18:26;100306.28;;;19.73
64947;BMP280;51469;52.150;4.682;2023-04-01T14:31:34;100327.53;;;19.12
64947;BMP280;51469;52.150;4.682;2023-04-01T14:34:16;100344.31;;;19.21
64947;BMP280;51469;52.150;4.682;2023-04-01T14:37:13;100348.97;;;18.65
64947;BMP280;51469;52.150;4.682;2023-04-01T14:39:55;100350.16;;;18.76
64947;BMP280;51469;52.150;4.682;2023-04-01T14:42:51;100356.41;;;18.68
64947;BMP280;51469;52.150;4.682;2023-04-01T14:48:07;100359.31;;;18.52
64947;BMP280;51469;52.150;4.682;2023-04-01T14:50:49;100363.44;;;18.60
64947;BMP280;51469;52.150;4.682;2023-04-01T14:53:26;100375.19;;;18.39
64947;BMP280;51469;52.150;4.682;2023-04-01T14:55:54;100376.00;;;18.11
64947;BMP280;51469;52.150;4.682;2023-04-01T14:58:31;100384.38;;;18.36
64947;BMP280;51469;52.150;4.682;2023-04-01T15:01:11;100394.31;;;17.80
64947;BMP280;51469;52.150;4.682;2023-04-01T15:03:48;100396.09;;;17.74
64947;BMP280;51469;52.150;4.682;2023-04-01T15:09:28;100405.00;;;18.22
64947;BMP280;51469;52.150;4.682;2023-04-01T15:20:48;100429.09;;;18.13
64947;BMP280;51469;52.150;4.682;2023-04-01T15:23:31;100433.44;;;17.85
64947;BMP280;51469;52.150;4.682;2023-04-01T15:26:10;100438.16;;;18.01
64947;BMP280;51469;52.150;4.682;2023-04-01T15:28:51;100444.19;;;18.12
64947;BMP280;51469;52.150;4.682;2023-04-01T15:36:41;100460.47;;;17.97
64947;BMP280;51469;52.150;4.682;2023-04-01T15:44:37;100473.59;;;17.81
64947;BMP280;51469;52.150;4.682;2023-04-01T15:47:41;100482.59;;;17.85
64947;BMP280;51469;52.150;4.682;2023-04-01T15:50:26;100480.19;;;17.71
64947;BMP280;51469;52.150;4.682;2023-04-01T15:59:18;100508.53;;;17.78
64947;BMP280;51469;52.150;4.682;2023-04-01T16:01:56;100510.50;;;17.94
64947;BMP280;51469;52.150;4.682;2023-04-01T16:15:53;100532.81;;;17.58
64947;BMP280;51469;52.150;4.682;2023-04-01T16:23:42;100548.91;;;17.12
64947;BMP280;51469;52.150;4.682;2023-04-01T16:29:09;100559.72;;;17.26
64947;BMP280;51469;52.150;4.682;2023-04-01T16:31:50;100557.00;;;17.23
64947;BMP280;51469;52.150;4.682;2023-04-01T16:34:23;100562.28;;;17.17
64947;BMP280;51469;52.150;4.682;2023-04-01T16:37:03;100566.28;;;17.16
64947;BMP280;51469;52.150;4.682;2023-04-01T16:39:44;100573.53;;;17.10
64947;BMP280;51469;52.150;4.682;2023-04-01T16:42:52;100566.28;;;17.16
64947;BMP280;51469;52.150;4.682;2023-04-01T16:45:40;100587.66;;;17.16
64947;BMP280;51469;52.150;4.682;2023-04-01T16:50:55;100594.38;;;16.99
64947;BMP280;51469;52.150;4.682;2023-04-01T16:54:10;100607.91;;;17.13
64947;BMP280;51469;52.150;4.682;2023-04-01T16:56:38;100610.78;;;16.90
64947;BMP280;51469;52.150;4.682;2023-04-01T16:59:16;100618.59;;;16.75
64947;BMP280;51469;52.150;4.682;2023-04-01T17:04:30;100633.59;;;17.17
64947;BMP280;51469;52.150;4.682;2023-04-01T17:21:18;100662.50;;;17.16
64947;BMP280;51469;52.150;4.682;2023-04-01T17:24:00;100674.13;;;17.07
64947;BMP280;51469;52.150;4.682;2023-04-01T17:26:32;100684.09;;;16.62
64947;BMP280;51469;52.150;4.682;2023-04-01T17:29:20;100690.72;;;16.68
64947;BMP280;51469;52.150;4.682;2023-04-01T17:34:54;100710.13;;;17.11
64947;BMP280;51469;52.150;4.682;2023-04-01T17:37:45;100712.66;;;16.82
64947;BMP280;51469;52.150;4.682;2023-04-01T17:40:26;100724.22;;;16.77
64947;BMP280;51469;52.150;4.682;2023-04-01T17:43:22;100735.78;;;16.72
64947;BMP280;51469;52.150;4.682;2023-04-01T17:46:38;100731.72;;;16.31
64947;BMP280;51469;52.150;4.682;2023-04-01T17:51:55;100757.88;;;16.26
64947;BMP280;51469;52.150;4.682;2023-04-01T18:02:47;100773.66;;;16.29
64947;BMP280;51469;52.150;4.682;2023-04-01T18:21:22;100825.09;;;15.97
64947;BMP280;51469;52.150;4.682;2023-04-01T18:24:06;100829.84;;;15.59
64947;BMP280;51469;52.150;4.682;2023-04-01T18:26:38;100835.00;;;15.94
64947;BMP280;51469;52.150;4.682;2023-04-01T18:29:26;100846.88;;;15.91
64947;BMP280;51469;52.150;4.682;2023-04-01T18:31:55;100847.84;;;15.74
64947;BMP280;51469;52.150;4.682;2023-04-01T18:37:22;100861.47;;;15.58
64947;BMP280;51469;52.150;4.682;2023-04-01T18:45:36;100886.81;;;15.90
64947;BMP280;51469;52.150;4.682;2023-04-01T18:51:11;100890.69;;;15.59
64947;BMP280;51469;52.150;4.682;2023-04-01T18:53:49;100901.63;;;15.73
64947;BMP280;51469;52.150;4.682;2023-04-01T18:56:29;100911.00;;;15.83
64947;BMP280;51469;52.150;4.682;2023-04-01T18:59:03;100919.50;;;16.02
64947;BMP280;51469;52.150;4.682;2023-04-01T19:01:35;100933.16;;;15.79
64947;BMP280;51469;52.150;4.682;2023-04-01T19:04:41;100924.31;;;15.54
64947;BMP280;51469;52.150;4.682;2023-04-01T19:07:40;100932.72;;;15.44
64947;BMP280;51469;52.150;4.682;2023-04-01T19:10:14;100948.63;;;15.77
64947;BMP280;51469;52.150;4.682;2023-04-01T19:27:06;100978.41;;;15.59
64947;BMP280;51469;52.150;4.682;2023-04-01T19:32:42;100989.50;;;15.55
64947;BMP280;51469;52.150;4.682;2023-04-01T19:35:22;100989.94;;;15.50
64947;BMP280;51469;52.150;4.682;2023-04-01T19:45:52;101010.56;;;15.86
64947;BMP280;51469;52.150;4.682;2023-04-01T19:51:16;101022.84;;;15.27
64947;BMP280;51469;52.150;4.682;2023-04-01T19:56:22;101030.88;;;15.04
64947;BMP280;51469;52.150;4.682;2023-04-01T20:01:28;101039.16;;;15.69
64947;BMP280;51469;52.150;4.682;2023-04-01T20:04:44;101048.50;;;15.86
64947;BMP280;51469;52.150;4.682;2023-04-01T20:06:52;101051.69;;;15.84
64947;BMP280;51469;52.150;4.682;2023-04-01T20:12:37;101062.50;;;15.65
64947;BMP280;51469;52.150;4.682;2023-04-01T20:15:27;101077.06;;;15.07
64947;BMP280;51469;52.150;4.682;2023-04-01T20:17:57;101081.44;;;14.94
64947;BMP280;51469;52.150;4.682;2023-04-01T20:20:26;101086.88;;;15.15
64947;BMP280;51469;52.150;4.682;2023-04-01T20:23:03;101091.66;;;15.11
64947;BMP280;51469;52.150;4.682;2023-04-01T20:25:33;101101.94;;;15.00
64947;BMP280;51469;52.150;4.682;2023-04-01T20:36:15;101116.84;;;15.20
64947;BMP280;51469;52.150;4.682;2023-04-01T20:44:26;101139.66;;;15.42
64947;BMP280;51469;52.150;4.682;2023-04-01T20:54:43;101164.66;;;15.24
64947;BMP280;51469;52.150;4.682;2023-04-01T20:57:55;101168.97;;;15.22
64947;BMP280;51469;52.150;4.682;2023-04-01T21:06:18;101186.41;;;14.80
64947;BMP280;51469;52.150;4.682;2023-04-01T21:14:11;101196.69;;;14.90
64947;BMP280;51469;52.150;4.682;2023-04-01T21:16:47;101203.84;;;14.67
64947;BMP280;51469;52.150;4.682;2023-04-01T21:36:27;101250.34;;;14.36
64947;BMP280;51469;52.150;4.682;2023-04-01T22:00:34;101292.19;;;14.56
64947;BMP280;51469;52.150;4.682;2023-04-01T22:03:44;101310.22;;;14.25
64947;BMP280;51469;52.150;4.682;2023-04-01T22:06:22;101305.53;;;14.29
64947;BMP280;51469;52.150;4.682;2023-04-01T22:08:56;101311.81;;;14.19
64947;BMP280;51469;52.150;4.682;2023-04-01T22:14:12;101330.72;;;14.21
64947;BMP280;51469;52.150;4.682;2023-04-01T22:27:42;101340.81;;;13.92
64947;BMP280;51469;52.150;4.682;2023-04-01T22:32:47;101350.22;;;13.74
64947;BMP280;51469;52.150;4.682;2023-04-01T22:43:40;101371.72;;;14.22
64947;BMP280;51469;52.150;4.682;2023-04-01T22:49:08;101381.28;;;14.39
64947;BMP280;51469;52.150;4.682;2023-04-01T22:51:50;101383.47;;;14.02
64947;BMP280;51469;52.150;4.682;2023-04-01T22:54:34;101399.41;;;14.33
64947;BMP280;51469;52.150;4.682;2023-04-01T22:57:12;101399.34;;;14.29
64947;BMP280;51469;52.150;4.682;2023-04-01T22:59:48;101404.97;;;14.54
64947;BMP280;51469;52.150;4.682;2023-04-01T23:02:20;101396.25;;;14.38
64947;BMP280;51469;52.150;4.682;2023-04-01T23:04:53;101414.44;;;14.49
64947;BMP280;51469;52.150;4.682;2023-04-01T23:10:30;101418.41;;;14.59
64947;BMP280;51469;52.150;4.682;2023-04-01T23:13:01;101421.97;;;14.56
64947;BMP280;51469;52.150;4.682;2023-04-01T23:15:29;101429.28;;;14.24
64947;BMP280;51469;52.150;4.682;2023-04-01T23:20:34;101433.34;;;14.44
64947;BMP280;51469;52.150;4.682;2023-04-01T23:31:40;101454.09;;;13.59
64947;BMP280;51469;52.150;4.682;2023-04-01T23:36:39;101466.97;;;13.92
64947;BMP280;51469;52.150;4.682;2023-04-01T23:42:05;101474.25;;;13.27
64947;BMP280;51469;52.150;4.682;2023-04-01T23:44:33;101477.75;;;13.64
64947;BMP280;51469;52.150;4.682;2023-04-01T23:47:01;101480.03;;;13.55
64947;BMP280;51469;52.150;4.682;2023-04-01T23:49:34;101483.69;;;13.66
64947;BMP280;51469;52.150;4.682;2023-04-01T23:52:20;101487.13;;;13.56
64947;BMP280;51469;52.150;4.682;2023-04-01T23:54:48;101495.72;;;13.91
64947;BMP280;51469;52.150;4.682;2023-04-01T23:57:18;101491.78;;;13.92
